Telegraph Creek, Canada
Current Conditions -  °F | °C
As of 12:27 AM on Sunday 21 Dec 2014 (Local Time) from CYDL Reporting Station
Light Snow Light Snow  
Wind Chill: -16°   Ceiling: 2200
Heat Index: -11°   Visibility: 1.2mi
Dew Point: -12°   Wind: 6mph
Humidity: 92%   Direction: 50°NE
Pressure: 29.19"   Gusts: NA
Location:  57.9°N, 131.15°W
Report Text: CYDL 210827Z AUTO 05005KT 1 1/4SM -SN OVC022 M11/M12 A2919 RMK SLP926
Loading
Personal Weather Stations






























Interactive Weather Map New forecast layout! Learn more

10-Day Weather Forecast

Advertisements
Track Severe Weather on mobile